No particular awareness of the weather is required.    There are no Weather-warnings


Meteo18 Weather Cam more information Meteo18 Weather Cam


Thunder radar more information blitzortung!


Rain radar more information rain snow radar


Visit our other weather sites:

Template documentation
and downloads

And another site



Weather Underground History page Text

Daily Summary for October 31, 2017 Units:  English    Metric   Both
« Previous Day
Next Day »
Daily Weekly Monthly Yearly Custom
  High: Low: Average:
Temperature: TemperatureC °F 2.2 °F 7.1 °F
Dew Point: DewpointC °F 1.3 °F 3 °F
Humidity: Humidity % 53 % 76 %
Wind Speed: WindSpeedKMH mph 0.0 mph 4.5 mph
Wind Gust: WindSpeedGustKMH mph - -
Wind:- - East
Pressure: PressurehPa in 1025.3 in -
Precipitation: 0.0 in    
Historical Graphs
 
 
Tabular Data for October 31, 2017
Time Temperature Dew Point Pressure Wind Wind Speed Wind Gust Humidity Rainfall Rate (Hourly)
TemperatureC °F DewpointC °F PressurehPa in Calm     Humidity % HourlyPrecipMM in
00:02 4.6 °F 2.8 °F 1028.7 in ESE 3.2 mph 9.7 mph 88 % 0.0 in
00:12 4.6 °F 2.9 °F 1028.7 in NNE 3.2 mph 9.7 mph 89 % 0.0 in
00:17 4.6 °F 2.9 °F 1028.7 in NNW 1.6 mph 11.3 mph 89 % 0.0 in
00:22 4.6 °F 2.9 °F 1028.7 in Calm   11.3 mph 89 % 0.0 in
00:27 4.5 °F 2.8 °F 1028.7 in NE 3.2 mph 6.4 mph 89 % 0.0 in
00:37 4.4 °F 2.9 °F 1028.7 in NE 3.2 mph 9.7 mph 90 % 0.0 in
00:42 4.4 °F 2.7 °F 1028.7 in NNW 1.6 mph 9.7 mph 89 % 0.0 in
00:52 4.1 °F 2.6 °F 1028.7 in NNE 1.6 mph 6.4 mph 90 % 0.0 in
01:02 3.9 °F 2.4 °F 1028.7 in NNE 3.2 mph 6.4 mph 90 % 0.0 in
01:12 3.9 °F 2.6 °F 1028.7 in NNW 1.6 mph 6.4 mph 91 % 0.0 in
01:17 3.9 °F 2.6 °F 1028.7 in Calm   6.4 mph 91 % 0.0 in
01:22 3.9 °F 2.6 °F 1028.7 in Calm   6.4 mph 91 % 0.0 in
01:27 3.9 °F 2.6 °F 1028.7 in Calm   4.8 mph 91 % 0.0 in
01:32 3.9 °F 2.6 °F 1028.7 in North 1.6 mph 6.4 mph 91 % 0.0 in
01:42 3.8 °F 2.5 °F 1028.3 in Calm   6.4 mph 91 % 0.0 in
01:47 3.6 °F 2.3 °F 1028.3 in NNW 1.6 mph 4.8 mph 91 % 0.0 in
01:52 3.6 °F 2.4 °F 1028.3 in NNW 1.6 mph 4.8 mph 92 % 0.0 in
01:57 3.6 °F 2.4 °F 1028.3 in North 3.2 mph 4.8 mph 92 % 0.0 in
02:02 3.6 °F 2.4 °F 1028.3 in NNE 1.6 mph 6.4 mph 92 % 0.0 in
02:12 3.6 °F 2.4 °F 1028.3 in NNE 3.2 mph 6.4 mph 92 % 0.0 in
02:17 3.6 °F 2.4 °F 1028.3 in NNE 1.6 mph 8.0 mph 92 % 0.0 in
02:22 3.5 °F 2.3 °F 1028.3 in NNE 1.6 mph 8.0 mph 92 % 0.0 in
02:37 3.3 °F 2.1 °F 1028.3 in NNE 1.6 mph 4.8 mph 92 % 0.0 in
02:42 3.3 °F 2.1 °F 1028.3 in Calm   3.2 mph 92 % 0.0 in
02:52 3.3 °F 2.3 °F 1028.3 in Calm   4.8 mph 93 % 0.0 in
02:57 3.3 °F 2.1 °F 1028.3 in Calm   3.2 mph 92 % 0.0 in
03:02 3.2 °F 2.0 °F 1028.3 in NNW 1.6 mph 4.8 mph 92 % 0.0 in
03:12 3.3 °F 2.1 °F 1028.0 in NNE 1.6 mph 4.8 mph 92 % 0.0 in
03:17 3.2 °F 2.0 °F 1028.0 in NNE 3.2 mph 6.4 mph 92 % 0.0 in
03:22 3.2 °F 2.0 °F 1028.0 in NE 1.6 mph 6.4 mph 92 % 0.0 in
03:27 3.2 °F 2.0 °F 1028.0 in North 1.6 mph 6.4 mph 92 % 0.0 in
03:32 3.2 °F 2.0 °F 1028.0 in North 1.6 mph 6.4 mph 92 % 0.0 in
03:37 3.3 °F 2.1 °F 1028.0 in North 4.8 mph 6.4 mph 92 % 0.0 in
03:42 3.4 °F 2.2 °F 1028.0 in NE 3.2 mph 4.8 mph 92 % 0.0 in
03:47 3.3 °F 2.1 °F 1028.0 in Calm   6.4 mph 92 % 0.0 in
03:52 3.2 °F 2.0 °F 1028.0 in NNW 1.6 mph 6.4 mph 92 % 0.0 in
03:57 3.1 °F 1.9 °F 1028.0 in Calm   6.4 mph 92 % 0.0 in
04:02 2.9 °F 1.6 °F 1028.0 in Calm   4.8 mph 91 % 0.0 in
04:07 2.9 °F 1.6 °F 1028.0 in Calm   4.8 mph 91 % 0.0 in
08:12 2.2 °F 1.3 °F 1028.7 in North 1.6 mph -1607.4 mph 94 % 0 in
08:17 2.4 °F 1.5 °F 1028.7 in NNW 1.6 mph 4.8 mph 94 % 0.0 in
08:22 2.6 °F 1.7 °F 1028.7 in NNE 3.2 mph 4.8 mph 94 % 0.0 in
08:37 3.1 °F 2.1 °F 1029.0 in NNE 1.6 mph 4.8 mph 93 % 0.0 in
08:42 3.4 °F 2.4 °F 1029.0 in Calm   4.8 mph 93 % 0.0 in
08:47 3.6 °F 2.6 °F 1029.0 in Calm   8.0 mph 93 % 0.0 in
08:52 3.7 °F 2.5 °F 1028.7 in NNE 9.7 mph 9.7 mph 92 % 0.0 in
09:02 4.1 °F 2.6 °F 1028.7 in NE 6.4 mph 9.7 mph 90 % 0.0 in
09:12 4.4 °F 2.6 °F 1028.7 in NE 9.7 mph 14.5 mph 88 % 0.0 in
09:17 4.5 °F 2.7 °F 1028.7 in ENE 12.9 mph 19.3 mph 88 % 0.0 in
09:22 4.7 °F 2.9 °F 1028.7 in NE 12.9 mph 19.3 mph 88 % 0.0 in
09:27 4.8 °F 2.8 °F 1028.7 in North 11.3 mph 17.7 mph 87 % 0.0 in
09:32 4.9 °F 2.9 °F 1028.7 in NE 4.8 mph 17.7 mph 87 % 0.0 in
09:37 5.1 °F 3.0 °F 1028.7 in NE 9.7 mph 17.7 mph 86 % 0.0 in
09:42 5.2 °F 3.1 °F 1028.7 in NNE 12.9 mph 17.7 mph 86 % 0.0 in
09:47 5.2 °F 2.9 °F 1028.7 in NE 6.4 mph 16.1 mph 85 % 0.0 in
09:52 5.3 °F 3.0 °F 1028.7 in ENE 11.3 mph 16.1 mph 85 % 0.0 in
09:57 5.4 °F 3.1 °F 1028.7 in NE 11.3 mph 19.3 mph 85 % 0.0 in
10:02 5.6 °F 3.1 °F 1028.7 in NNE 6.4 mph 19.3 mph 84 % 0.0 in
10:12 5.8 °F 3.1 °F 1028.7 in NE 8.0 mph 19.3 mph 83 % 0.0 in
10:17 6.1 °F 3.4 °F 1028.7 in NNE 12.9 mph 20.9 mph 83 % 0.0 in
10:27 6.5 °F 3.6 °F 1028.7 in ENE 8.0 mph 16.1 mph 82 % 0.0 in
10:32 6.6 °F 3.7 °F 1028.7 in NE 9.7 mph 16.1 mph 82 % 0.0 in
10:42 6.8 °F 3.8 °F 1028.7 in NE 8.0 mph 17.7 mph 81 % 0.0 in
10:52 7.2 °F 4.0 °F 1028.7 in NNE 8.0 mph 17.7 mph 80 % 0.0 in
10:57 7.3 °F 4.3 °F 1028.7 in NE 4.8 mph 16.1 mph 81 % 0.0 in
11:02 7.3 °F 3.7 °F 1028.7 in NNE 12.9 mph 16.1 mph 78 % 0.0 in
11:12 7.6 °F 4.2 °F 1028.7 in NE 6.4 mph 17.7 mph 79 % 0.0 in
11:17 7.9 °F 4.1 °F 1028.7 in ENE 4.8 mph 17.7 mph 77 % 0.0 in
11:22 8.2 °F 4.0 °F 1028.7 in NE 11.3 mph 17.7 mph 75 % 0.0 in
11:32 8.6 °F 4.0 °F 1028.7 in NE 4.8 mph 16.1 mph 73 % 0.0 in
11:42 8.9 °F 3.9 °F 1028.7 in ENE 6.4 mph 16.1 mph 71 % 0.0 in
11:52 9.3 °F 3.9 °F 1028.3 in ENE 4.8 mph 17.7 mph 69 % 0.0 in
11:57 9.6 °F 3.8 °F 1028.3 in East 3.2 mph 16.1 mph 67 % 0.0 in
12:02 9.7 °F 3.7 °F 1028.3 in NNE 8.0 mph 16.1 mph 66 % 0.0 in
12:12 9.8 °F 3.5 °F 1028.0 in North 6.4 mph 19.3 mph 65 % 0.0 in
12:22 10.0 °F 3.3 °F 1027.7 in NE 11.3 mph 19.3 mph 63 % 0.0 in
12:27 10.3 °F 3.6 °F 1027.7 in ENE 6.4 mph 17.7 mph 63 % 0.0 in
12:32 10.4 °F 3.4 °F 1027.7 in NE 9.7 mph 17.7 mph 62 % 0.0 in
12:37 10.3 °F 3.1 °F 1027.7 in ENE 6.4 mph 17.7 mph 61 % 0.0 in
12:42 10.3 °F 3.6 °F 1027.7 in ENE 8.0 mph 17.7 mph 63 % 0.0 in
12:52 10.5 °F 3.1 °F 1027.7 in East 11.3 mph 17.7 mph 60 % 0.0 in
12:57 10.6 °F 2.9 °F 1027.7 in ESE 6.4 mph 19.3 mph 59 % 0.0 in
13:02 10.7 °F 3.2 °F 1027.7 in North 16.1 mph 19.3 mph 60 % 0.0 in
13:12 10.7 °F 3.2 °F 1027.3 in ENE 6.4 mph 20.9 mph 60 % 0.0 in
13:17 10.8 °F 3.3 °F 1027.3 in NE 8.0 mph 20.9 mph 60 % 0.0 in
13:22 11.0 °F 3.5 °F 1027.3 in NE 6.4 mph 20.9 mph 60 % 0.0 in
13:27 11.0 °F 3.1 °F 1027.3 in East 4.8 mph 20.9 mph 58 % 0.0 in
13:37 11.0 °F 3.1 °F 1027.3 in NE 14.5 mph 20.9 mph 58 % 0.0 in
13:42 11.1 °F 2.7 °F 1027.3 in NNE 9.7 mph 20.9 mph 56 % 0.0 in
13:47 11.2 °F 2.7 °F 1027.0 in NNE 9.7 mph 20.9 mph 56 % 0.0 in
13:52 11.3 °F 2.6 °F 1027.0 in NE 12.9 mph 19.3 mph 55 % 0.0 in
13:57 11.2 °F 2.2 °F 1027.0 in NNE 8.0 mph 19.3 mph 54 % 0.0 in
14:02 11.3 °F 2.3 °F 1027.0 in ENE 8.0 mph 24.1 mph 54 % 0.0 in
14:12 11.4 °F 2.4 °F 1027.0 in NE 6.4 mph 22.5 mph 54 % 0.0 in
14:17 11.6 °F 3.4 °F 1027.0 in NE 3.2 mph 22.5 mph 57 % 0.0 in
14:22 11.6 °F 2.6 °F 1027.0 in NNE 8.0 mph 17.7 mph 54 % 0.0 in
14:27 11.6 °F 2.6 °F 1027.0 in NNE 11.3 mph 17.7 mph 54 % 0.0 in
14:32 11.6 °F 2.9 °F 1027.0 in East 8.0 mph 22.5 mph 55 % 0.0 in
14:37 11.6 °F 2.3 °F 1027.0 in NNE 14.5 mph 22.5 mph 53 % 0.0 in
14:42 11.6 °F 2.3 °F 1027.0 in NE 14.5 mph 20.9 mph 53 % 0.0 in
14:52 11.6 °F 2.3 °F 1026.6 in NNE 8.0 mph 22.5 mph 53 % 0.0 in
14:57 11.6 °F 2.6 °F 1026.6 in ENE 4.8 mph 22.5 mph 54 % 0.0 in
15:02 11.6 °F 2.6 °F 1026.6 in ENE 11.3 mph 19.3 mph 54 % 0.0 in
15:12 11.6 °F 2.3 °F 1026.6 in NE 11.3 mph 17.7 mph 53 % 0.0 in
15:17 11.6 °F 2.3 °F 1026.6 in ENE 14.5 mph 17.7 mph 53 % 0.0 in
15:22 11.7 °F 2.4 °F 1026.6 in NE 4.8 mph 24.1 mph 53 % 0.0 in
15:32 11.7 °F 2.4 °F 1026.6 in NE 11.3 mph 24.1 mph 53 % 0.0 in
15:37 11.8 °F 2.8 °F 1026.6 in ENE 4.8 mph 24.1 mph 54 % 0.0 in
15:42 11.8 °F 2.5 °F 1026.6 in East 8.0 mph 19.3 mph 53 % 0.0 in
15:47 11.9 °F 2.9 °F 1026.6 in ENE 11.3 mph 19.3 mph 54 % 0.0 in
15:52 11.8 °F 2.8 °F 1026.6 in NNE 6.4 mph 16.1 mph 54 % 0.0 in
15:57 11.8 °F 3.0 °F 1026.3 in NNE 6.4 mph 16.1 mph 55 % 0.0 in
16:02 11.8 °F 3.0 °F 1026.3 in NE 4.8 mph 16.1 mph 55 % 0.0 in
16:07 11.8 °F 3.0 °F 1026.3 in East 4.8 mph 16.1 mph 55 % 0.0 in
16:12 11.7 °F 2.7 °F 1026.3 in ENE 4.8 mph 17.7 mph 54 % 0.0 in
16:17 11.7 °F 3.0 °F 1026.3 in ENE 12.9 mph 17.7 mph 55 % 0.0 in
16:22 11.6 °F 2.9 °F 1026.3 in ENE 6.4 mph 12.9 mph 55 % 0.0 in
16:27 11.6 °F 3.1 °F 1026.3 in NE 3.2 mph 12.9 mph 56 % 0.0 in
16:32 11.6 °F 3.1 °F 1026.3 in ENE 4.8 mph 14.5 mph 56 % 0.0 in
16:37 11.4 °F 2.9 °F 1026.3 in NE 6.4 mph 14.5 mph 56 % 0.0 in
16:42 11.2 °F 3.0 °F 1026.3 in NE 4.8 mph 14.5 mph 57 % 0.0 in
16:52 10.9 °F 3.2 °F 1026.3 in ENE 4.8 mph 12.9 mph 59 % 0.0 in
16:57 10.7 °F 3.0 °F 1026.3 in NNE 6.4 mph 11.3 mph 59 % 0.0 in
17:02 10.6 °F 3.2 °F 1026.3 in ENE 3.2 mph 9.7 mph 60 % 0.0 in
17:12 10.1 °F 3.4 °F 1026.3 in NNE 1.6 mph 9.7 mph 63 % 0.0 in
17:22 9.7 °F 3.4 °F 1026.6 in NNE 4.8 mph 8.0 mph 65 % 0.0 in
17:27 9.6 °F 3.6 °F 1026.6 in NE 6.4 mph 8.0 mph 66 % 0.0 in
17:32 9.5 °F 3.2 °F 1026.6 in NNE 6.4 mph 8.0 mph 65 % 0.0 in
17:37 9.3 °F 3.3 °F 1026.6 in NNE 4.8 mph 8.0 mph 66 % 0.0 in
17:42 9.1 °F 3.5 °F 1026.6 in Calm   8.0 mph 68 % 0.0 in
17:47 8.8 °F 3.4 °F 1026.6 in NNE 3.2 mph 8.0 mph 69 % 0.0 in
17:52 8.6 °F 3.4 °F 1026.6 in North 4.8 mph 8.0 mph 70 % 0.0 in
18:02 8.3 °F 3.4 °F 1026.6 in NNW 1.6 mph 6.4 mph 71 % 0.0 in
18:12 7.9 °F 3.4 °F 1026.6 in NNE 1.6 mph 6.4 mph 73 % 0.0 in
18:17 7.8 °F 3.5 °F 1026.6 in NNE 3.2 mph 4.8 mph 74 % 0.0 in
18:22 7.6 °F 3.5 °F 1026.6 in Calm   4.8 mph 75 % 0.0 in
18:32 7.6 °F 3.8 °F 1026.6 in NE 3.2 mph 6.4 mph 77 % 0.0 in
18:37 7.7 °F 4.1 °F 1026.6 in NNE 6.4 mph 9.7 mph 78 % 0.0 in
18:42 8.0 °F 4.0 °F 1026.6 in ENE 8.0 mph 9.7 mph 76 % 0.0 in
18:47 8.2 °F 4.0 °F 1026.6 in North 4.8 mph 9.7 mph 75 % 0.0 in
18:52 8.2 °F 3.8 °F 1026.6 in NE 4.8 mph 9.7 mph 74 % 0.0 in
19:02 7.9 °F 3.9 °F 1026.6 in NE 3.2 mph 8.0 mph 76 % 0.0 in
19:07 7.8 °F 3.8 °F 1026.6 in NE 4.8 mph 8.0 mph 76 % 0.0 in
19:17 7.8 °F 3.8 °F 1026.3 in Calm   11.3 mph 76 % 0.0 in
19:22 7.7 °F 3.7 °F 1026.3 in NNE 6.4 mph 11.3 mph 76 % 0.0 in
19:27 7.8 °F 4.0 °F 1026.3 in NE 6.4 mph 11.3 mph 77 % 0.0 in
19:32 7.8 °F 4.0 °F 1026.3 in Calm   11.3 mph 77 % 0.0 in
19:42 7.6 °F 4.0 °F 1026.3 in NE 6.4 mph 9.7 mph 78 % 0.0 in
19:47 7.6 °F 4.0 °F 1026.0 in NE 4.8 mph 8.0 mph 78 % 0.0 in
19:52 7.5 °F 3.9 °F 1026.0 in NNE 4.8 mph 9.7 mph 78 % 0.0 in
19:57 7.4 °F 4.0 °F 1026.0 in NNE 4.8 mph 9.7 mph 79 % 0.0 in
20:02 7.4 °F 4.0 °F 1026.0 in NE 1.6 mph 9.7 mph 79 % 0.0 in
20:12 7.3 °F 3.9 °F 1026.0 in Calm   8.0 mph 79 % 0.0 in
20:17 7.2 °F 3.8 °F 1026.0 in Calm   6.4 mph 79 % 0.0 in
20:27 7.1 °F 3.9 °F 1026.0 in Calm   3.2 mph 80 % 0.0 in
20:32 7.0 °F 3.8 °F 1026.0 in North 3.2 mph 3.2 mph 80 % 0.0 in
20:42 6.9 °F 3.7 °F 1026.0 in Calm   3.2 mph 80 % 0.0 in
20:47 6.8 °F 3.6 °F 1026.0 in NNW 1.6 mph 3.2 mph 80 % 0.0 in
20:52 6.8 °F 3.6 °F 1026.0 in Calm   3.2 mph 80 % 0.0 in
20:57 6.7 °F 3.5 °F 1026.0 in Calm   1.6 mph 80 % 0.0 in
21:02 6.8 °F 3.6 °F 1026.0 in Calm   1.6 mph 80 % 0.0 in
21:12 6.8 °F 3.6 °F 1026.0 in NNE 1.6 mph 1.6 mph 80 % 0.0 in
21:17 6.8 °F 3.6 °F 1026.0 in NNE 1.6 mph 3.2 mph 80 % 0.0 in
21:22 6.7 °F 3.5 °F 1026.0 in Calm   3.2 mph 80 % 0.0 in
21:27 6.8 °F 3.6 °F 1026.0 in NE 1.6 mph 3.2 mph 80 % 0.0 in
21:32 6.8 °F 3.6 °F 1026.0 in Calm   3.2 mph 80 % 0.0 in
21:42 6.5 °F 3.5 °F 1026.0 in Calm   3.2 mph 81 % 0.0 in
21:47 6.6 °F 3.4 °F 1026.0 in Calm   1.6 mph 80 % 0.0 in
21:52 6.3 °F 3.1 °F 1026.0 in Calm   1.6 mph 80 % 0.0 in
21:57 5.9 °F 3.2 °F 1026.0 in Calm   1.6 mph 83 % 0.0 in
22:02 5.6 °F 2.9 °F 1026.0 in WNW 1.6 mph 1.6 mph 83 % 0.0 in
22:12 5.4 °F 3.2 °F 1026.0 in Calm   1.6 mph 86 % 0.0 in
22:22 5.5 °F 3.0 °F 1026.0 in North 1.6 mph 1.6 mph 84 % 0.0 in
22:32 5.6 °F 3.3 °F 1026.0 in Calm   1.6 mph 85 % 0.0 in
22:42 5.4 °F 2.9 °F 1026.0 in Calm   1.6 mph 84 % 0.0 in
22:47 5.3 °F 3.0 °F 1026.0 in North 1.6 mph 1.6 mph 85 % 0.0 in
22:52 5.2 °F 2.9 °F 1026.0 in NNE 1.6 mph 1.6 mph 85 % 0.0 in
22:57 5.3 °F 3.0 °F 1026.0 in Calm   3.2 mph 85 % 0.0 in
23:02 5.3 °F 3.0 °F 1026.0 in Calm   3.2 mph 85 % 0.0 in
23:12 5.3 °F 3.0 °F 1026.0 in NNE 1.6 mph 3.2 mph 85 % 0.0 in
23:17 5.2 °F 2.9 °F 1026.0 in NNE 3.2 mph 3.2 mph 85 % 0.0 in
23:22 4.9 °F 2.6 °F 1026.0 in NNE 3.2 mph 3.2 mph 85 % 0.0 in
23:27 4.7 °F 2.6 °F 1025.6 in NNE 1.6 mph 4.8 mph 86 % 0.0 in
23:32 4.8 °F 2.8 °F 1025.6 in ENE 1.6 mph 4.8 mph 87 % 0.0 in
23:37 4.9 °F 2.9 °F 1025.6 in ENE 1.6 mph 4.8 mph 87 % 0.0 in
23:42 4.8 °F 2.7 °F 1025.3 in Calm   3.2 mph 86 % 0.0 in
23:47 4.7 °F 2.6 °F 1025.3 in Calm   3.2 mph 86 % 0.0 in
23:52 4.4 °F 2.4 °F 1025.3 in Calm   1.6 mph 87 % 0.0 in
23:57 4.3 °F 2.5 °F 1025.6 in Calm   1.6 mph 88 % 0.0 in
Meteo18
Compliments of Weather Underground - 4 mb

Script developed by  Jim McMurry - jmcmurry@mwt.net Adapted for the template by  Wim van der Kuil - Leuven-Template.eu

You find our weather info also at:

European Weather Network

Weather Underground

Equipment we use:

Weather-station
Davis Vue

Weather-program
Meteobridge

Weather-server
Raspberry PI 2 B+

Provider
1 and 1

Davis Vue

Meteobridge

Raspberry PI 2 B+

1 and 1